Time;durP1;ratioP1;P1;durP2;ratioP2;P2;SDS_P1;SDS_P2;PMS_P1;PMS_P2;Temp;Humidity;BMP_temperature;BMP_pressure;BME280_temperature;BME280_humidity;BME280_pressure;Samples;Min_cycle;Max_cycle;Signal;HPM_P1;HPM_P2
2023/01/10 00:00:12;;;;;;;6.35;1.50;;;7.40;99.90;;;;;;4982625;28;20056;-85
2023/01/10 00:02:38;;;;;;;5.13;1.40;;;7.50;99.90;;;;;;4984841;28;20083;-85
2023/01/10 00:05:04;;;;;;;4.75;1.27;;;7.50;99.90;;;;;;4980330;28;20051;-85
2023/01/10 00:07:30;;;;;;;4.97;1.20;;;7.50;99.90;;;;;;5026114;28;20461;-85
2023/01/10 00:09:56;;;;;;;3.65;1.15;;;7.50;99.90;;;;;;4999048;28;20028;-86
2023/01/10 00:15:13;;;;;;;4.45;1.30;;;7.50;99.90;;;;;;4965125;28;20333;-86
2023/01/10 00:17:39;;;;;;;5.23;1.17;;;7.50;99.90;;;;;;4991850;28;20036;-85
2023/01/10 00:20:05;;;;;;;5.30;1.13;;;7.40;99.90;;;;;;4998290;28;20266;-86
2023/01/10 00:22:31;;;;;;;2.65;0.95;;;7.40;99.90;;;;;;5020005;28;20025;-86
2023/01/10 00:24:56;;;;;;;4.27;1.17;;;7.40;99.90;;;;;;5013839;28;20055;-85
2023/01/10 00:27:22;;;;;;;3.25;0.95;;;7.40;99.90;;;;;;4996338;28;20025;-85
2023/01/10 00:29:52;;;;;;;3.03;1.20;;;7.40;99.90;;;;;;4970759;28;20421;-86
2023/01/10 00:32:21;;;;;;;4.78;1.30;;;7.40;99.90;;;;;;4992710;28;20025;-85
2023/01/10 00:34:47;;;;;;;3.35;1.10;;;7.40;99.90;;;;;;5009078;28;20290;-85
2023/01/10 00:37:13;;;;;;;4.10;1.20;;;7.40;99.90;;;;;;5008280;28;20187;-85
2023/01/10 00:39:39;;;;;;;4.70;0.90;;;7.40;99.90;;;;;;4995732;28;20092;-85
2023/01/10 00:44:49;;;;;;;4.15;1.38;;;7.50;99.90;;;;;;5013315;28;20394;-86
2023/01/10 00:47:14;;;;;;;3.60;0.93;;;7.50;99.90;;;;;;5002659;28;20100;-86
2023/01/10 00:49:40;;;;;;;3.75;1.00;;;7.50;99.90;;;;;;4987624;28;20250;-86
2023/01/10 00:52:06;;;;;;;3.10;1.30;;;7.60;99.90;;;;;;5006288;28;20107;-86
2023/01/10 00:54:32;;;;;;;3.40;1.00;;;7.60;99.90;;;;;;5014163;28;20040;-86
2023/01/10 00:56:58;;;;;;;3.42;0.77;;;7.70;99.90;;;;;;5013741;28;20031;-86
2023/01/10 00:59:24;;;;;;;5.10;1.30;;;7.70;99.90;;;;;;4998622;28;20025;-86
2023/01/10 01:01:51;;;;;;;4.97;1.00;;;7.70;99.90;;;;;;5004820;28;20475;-85
2023/01/10 01:04:17;;;;;;;4.18;1.20;;;7.80;99.90;;;;;;4975819;28;20332;-86
2023/01/10 01:06:45;;;;;;;3.50;1.02;;;7.80;99.90;;;;;;4989346;28;20044;-87
2023/01/10 01:09:11;;;;;;;2.67;0.90;;;7.80;99.90;;;;;;4998363;28;20024;-86
2023/01/10 01:11:36;;;;;;;4.22;0.90;;;7.80;99.90;;;;;;4991797;28;20052;-85
2023/01/10 01:14:02;;;;;;;4.47;1.13;;;7.90;99.90;;;;;;5033848;28;20553;-86
2023/01/10 01:16:28;;;;;;;5.85;1.45;;;7.90;99.90;;;;;;4998892;28;20059;-86
2023/01/10 01:18:53;;;;;;;4.10;1.20;;;8.00;99.90;;;;;;4978305;28;20265;-85
2023/01/10 01:21:20;;;;;;;2.17;0.90;;;8.00;99.90;;;;;;5007197;28;20006;-85
2023/01/10 01:23:46;;;;;;;4.55;1.15;;;8.10;99.90;;;;;;4989677;28;20471;-86
2023/01/10 01:26:12;;;;;;;5.47;1.33;;;8.10;99.90;;;;;;5031803;28;20032;-87
2023/01/10 01:28:37;;;;;;;2.85;0.80;;;8.10;99.90;;;;;;4995405;28;20274;-87
2023/01/10 01:31:09;;;;;;;3.07;1.00;;;8.20;99.90;;;;;;5000179;28;20106;-86
2023/01/10 01:33:35;;;;;;;5.20;1.00;;;8.20;99.90;;;;;;4974643;28;20558;-86
2023/01/10 01:36:01;;;;;;;6.00;1.08;;;8.20;99.90;;;;;;5007613;28;20013;-86
2023/01/10 01:38:27;;;;;;;4.43;1.00;;;8.20;99.90;;;;;;4981906;28;20029;-86
2023/01/10 01:40:52;;;;;;;4.10;1.00;;;8.30;99.90;;;;;;5006133;28;20021;-86
2023/01/10 01:43:28;;;;;;;6.07;0.93;;;8.30;99.90;;;;;;4997811;28;20013;-86
2023/01/10 01:45:56;;;;;;;4.05;1.10;;;8.30;99.90;;;;;;5000762;28;20219;-86
2023/01/10 01:48:22;;;;;;;4.38;0.93;;;8.30;99.90;;;;;;5027952;28;20381;-86
2023/01/10 01:51:06;;;;;;;5.40;1.00;;;8.30;99.90;;;;;;4971126;28;20274;-85
2023/01/10 01:53:44;;;;;;;4.40;1.10;;;8.30;99.90;;;;;;4998433;28;20131;-85
2023/01/10 01:56:33;;;;;;;4.55;1.10;;;8.30;99.90;;;;;;5014004;28;20129;-86
2023/01/10 01:59:04;;;;;;;6.60;1.25;;;8.30;99.90;;;;;;5014964;28;20017;-86
2023/01/10 02:01:31;;;;;;;5.80;1.02;;;8.30;99.90;;;;;;5012335;28;20021;-85
2023/01/10 02:04:28;;;;;;;4.07;1.00;;;8.20;99.90;;;;;;5010603;28;20220;-86
2023/01/10 02:06:56;;;;;;;3.65;1.00;;;8.20;99.90;;;;;;5008761;28;20404;-86
2023/01/10 02:09:38;;;;;;;3.63;0.90;;;8.20;99.90;;;;;;5012029;28;20124;-85
2023/01/10 02:12:04;;;;;;;3.20;0.80;;;8.20;99.90;;;;;;4997366;28;20773;-85
2023/01/10 02:14:32;;;;;;;3.50;0.90;;;8.20;99.90;;;;;;5016764;28;20028;-86
2023/01/10 02:16:58;;;;;;;5.50;1.07;;;8.20;99.90;;;;;;5020240;28;20140;-86
2023/01/10 02:19:53;;;;;;;4.88;1.10;;;8.20;99.90;;;;;;5002923;28;20029;-85
2023/01/10 02:22:44;;;;;;;3.55;1.17;;;8.10;99.90;;;;;;4997384;28;20017;-85
2023/01/10 02:25:32;;;;;;;6.73;1.27;;;8.20;99.90;;;;;;5025048;28;20026;-86
2023/01/10 02:28:20;;;;;;;5.55;1.00;;;8.10;99.90;;;;;;4983413;28;20052;-86
2023/01/10 02:31:26;;;;;;;4.15;1.15;;;8.10;99.90;;;;;;5009887;28;20634;-86
2023/01/10 02:34:19;;;;;;;2.03;0.80;;;8.00;99.90;;;;;;4962604;28;20064;-86
2023/01/10 02:37:05;;;;;;;4.50;1.20;;;8.00;99.90;;;;;;4991928;28;20739;-85
2023/01/10 02:39:56;;;;;;;4.77;1.10;;;8.00;99.90;;;;;;5009295;28;20052;-86
2023/01/10 02:42:41;;;;;;;5.70;1.20;;;8.00;99.90;;;;;;5005140;28;20025;-86
2023/01/10 02:45:26;;;;;;;3.63;1.00;;;7.90;99.90;;;;;;5029655;28;20270;-85
2023/01/10 02:47:52;;;;;;;4.50;1.35;;;7.90;99.90;;;;;;4994267;28;20033;-85
2023/01/10 02:50:42;;;;;;;5.17;1.40;;;7.90;99.90;;;;;;4974339;28;20055;-86
2023/01/10 02:53:24;;;;;;;5.18;1.20;;;7.90;99.90;;;;;;5015311;28;20064;-86
2023/01/10 02:56:17;;;;;;;4.43;1.20;;;7.90;99.90;;;;;;4985979;28;20094;-85
2023/01/10 02:59:16;;;;;;;3.78;0.93;;;8.00;99.90;;;;;;5016624;28;20063;-86
2023/01/10 03:02:10;;;;;;;5.87;0.83;;;7.90;99.90;;;;;;4997991;28;20688;-86
2023/01/10 03:04:56;;;;;;;3.92;0.90;;;7.90;99.90;;;;;;5019078;28;20033;-86
2023/01/10 03:07:36;;;;;;;3.28;1.08;;;7.90;99.90;;;;;;5007765;28;20318;-86
2023/01/10 03:10:14;;;;;;;5.40;1.40;;;7.80;99.90;;;;;;5002404;28;20033;-86
2023/01/10 03:13:05;;;;;;;7.20;1.15;;;7.80;99.90;;;;;;4998032;28;20388;-86
2023/01/10 03:15:35;;;;;;;6.83;1.63;;;7.80;99.90;;;;;;4997424;28;20026;-86
2023/01/10 03:18:05;;;;;;;3.70;0.85;;;7.80;99.90;;;;;;5008375;28;20033;-85
2023/01/10 03:20:35;;;;;;;4.53;1.40;;;7.70;99.90;;;;;;5018070;28;20025;-86
2023/01/10 03:23:04;;;;;;;5.15;1.23;;;7.70;99.90;;;;;;4968884;28;20290;-86
2023/01/10 03:25:34;;;;;;;2.97;0.90;;;7.60;99.90;;;;;;4989683;28;20048;-85
2023/01/10 03:28:18;;;;;;;5.33;1.30;;;7.60;99.90;;;;;;5011116;28;20140;-85
2023/01/10 03:30:59;;;;;;;5.97;1.08;;;7.60;99.90;;;;;;5009888;28;20033;-86
2023/01/10 03:33:28;;;;;;;4.53;1.33;;;7.50;99.90;;;;;;5005814;28;20017;-86
2023/01/10 03:36:17;;;;;;;3.55;0.80;;;7.50;99.90;;;;;;5007367;28;20129;-86
2023/01/10 03:38:43;;;;;;;5.93;1.23;;;7.50;99.90;;;;;;5009084;28;20079;-86
2023/01/10 03:41:38;;;;;;;3.77;1.00;;;7.50;99.90;;;;;;4982409;28;20285;-86
2023/01/10 03:47:15;;;;;;;4.45;1.10;;;7.40;99.90;;;;;;5013154;28;20509;-86
2023/01/10 03:49:46;;;;;;;6.77;1.03;;;7.40;99.90;;;;;;5006892;28;20067;-86
2023/01/10 03:52:15;;;;;;;6.70;1.30;;;7.40;99.90;;;;;;5017219;28;20428;-86
2023/01/10 03:54:42;;;;;;;5.90;1.38;;;7.40;99.90;;;;;;4988091;28;20496;-86
2023/01/10 03:57:15;;;;;;;5.97;1.27;;;7.40;99.90;;;;;;5003649;28;20025;-85
2023/01/10 03:59:41;;;;;;;5.45;1.33;;;7.30;99.90;;;;;;4994577;28;20052;-86
2023/01/10 04:02:06;;;;;;;5.53;0.97;;;7.30;99.90;;;;;;4997447;28;20128;-86
2023/01/10 04:04:32;;;;;;;4.70;1.23;;;7.30;99.90;;;;;;5006763;28;20021;-86
2023/01/10 04:06:58;;;;;;;5.50;1.08;;;7.30;99.90;;;;;;4995981;28;20049;-86
2023/01/10 04:09:24;;;;;;;5.33;1.03;;;7.20;99.90;;;;;;4980884;28;20036;-86
2023/01/10 04:11:50;;;;;;;5.70;1.40;;;7.20;99.90;;;;;;4972108;28;20915;-86
2023/01/10 04:14:16;;;;;;;7.13;1.30;;;7.20;99.90;;;;;;4982053;28;20100;-85
2023/01/10 04:16:42;;;;;;;4.03;1.13;;;7.20;99.90;;;;;;5009687;28;20027;-86
2023/01/10 04:19:08;;;;;;;7.28;1.67;;;7.20;99.90;;;;;;4997417;28;20034;-86
2023/01/10 04:21:34;;;;;;;6.95;1.58;;;7.10;99.90;;;;;;4970506;28;20179;-86
2023/01/10 04:23:59;;;;;;;4.77;1.13;;;7.10;99.90;;;;;;5014125;28;20490;-86
2023/01/10 04:26:25;;;;;;;4.32;1.20;;;7.10;99.90;;;;;;4973637;28;21700;-86
2023/01/10 04:28:51;;;;;;;8.37;1.57;;;7.10;99.90;;;;;;4968161;28;20533;-86
2023/01/10 04:31:17;;;;;;;9.20;1.38;;;7.10;99.90;;;;;;5012028;28;20493;-86
2023/01/10 04:33:43;;;;;;;5.60;1.00;;;7.10;99.90;;;;;;4973623;28;20022;-86
2023/01/10 04:36:08;;;;;;;6.93;1.08;;;7.00;99.90;;;;;;4975637;28;20026;-86
2023/01/10 04:38:34;;;;;;;9.00;2.07;;;7.00;99.90;;;;;;4994101;28;20029;-86
2023/01/10 04:41:00;;;;;;;8.80;2.35;;;7.00;99.90;;;;;;4974931;28;20495;-86
2023/01/10 04:43:26;;;;;;;7.13;1.65;;;7.00;99.90;;;;;;4962984;28;20104;-86
2023/01/10 04:45:52;;;;;;;6.63;1.60;;;7.00;99.90;;;;;;4975553;28;20127;-86
2023/01/10 04:48:18;;;;;;;7.60;1.80;;;6.90;99.90;;;;;;4992876;28;20063;-85
2023/01/10 04:50:49;;;;;;;8.30;1.58;;;6.90;99.90;;;;;;4994175;28;20013;-85
2023/01/10 04:53:15;;;;;;;5.87;1.00;;;6.90;99.90;;;;;;4978501;28;20022;-85
2023/01/10 04:55:41;;;;;;;5.43;1.20;;;6.90;99.90;;;;;;4984568;28;22072;-85
2023/01/10 04:58:07;;;;;;;4.05;1.00;;;6.90;99.90;;;;;;4972233;28;20026;-86
2023/01/10 05:00:33;;;;;;;6.93;1.40;;;6.90;99.90;;;;;;4980542;28;20049;-86
2023/01/10 05:02:59;;;;;;;4.75;1.30;;;7.00;99.90;;;;;;4994541;28;20049;-86
2023/01/10 05:05:24;;;;;;;8.63;1.65;;;7.00;99.90;;;;;;4985292;28;20090;-86
2023/01/10 05:07:50;;;;;;;7.33;1.00;;;7.00;99.90;;;;;;4995753;28;20021;-86
2023/01/10 05:10:16;;;;;;;3.83;1.02;;;7.00;99.90;;;;;;5006768;28;20025;-86
2023/01/10 05:12:42;;;;;;;8.52;2.15;;;7.00;99.90;;;;;;4960499;28;20048;-86
2023/01/10 05:15:08;;;;;;;6.73;1.40;;;7.00;99.90;;;;;;4999421;28;20381;-86
2023/01/10 05:17:34;;;;;;;5.28;1.10;;;6.90;99.90;;;;;;5008416;28;20072;-86
2023/01/10 05:20:00;;;;;;;7.65;1.67;;;6.90;99.90;;;;;;5031286;28;20542;-85
2023/01/10 05:22:26;;;;;;;4.40;0.93;;;6.90;99.90;;;;;;5016845;28;20044;-85
2023/01/10 05:24:52;;;;;;;4.53;1.10;;;6.90;99.90;;;;;;5014231;28;20091;-86
2023/01/10 05:27:18;;;;;;;4.23;1.10;;;6.90;99.90;;;;;;5000907;28;20618;-85
2023/01/10 05:29:44;;;;;;;7.32;1.38;;;6.90;99.90;;;;;;4979213;28;20052;-86
2023/01/10 05:32:10;;;;;;;6.78;1.40;;;6.90;99.90;;;;;;5016593;28;20021;-86
2023/01/10 05:34:36;;;;;;;5.15;1.30;;;6.90;99.90;;;;;;5010533;28;20028;-86
2023/01/10 05:37:02;;;;;;;6.13;1.33;;;6.90;99.90;;;;;;4993257;28;20028;-85
2023/01/10 05:39:27;;;;;;;7.88;1.55;;;6.90;99.90;;;;;;5001956;28;20025;-86
2023/01/10 05:41:53;;;;;;;4.83;1.23;;;6.90;99.90;;;;;;4989161;28;20289;-85
2023/01/10 05:44:19;;;;;;;5.78;1.35;;;6.90;99.90;;;;;;4973863;28;20082;-86
2023/01/10 05:46:44;;;;;;;5.93;1.53;;;6.90;99.90;;;;;;4984781;28;20056;-85
2023/01/10 05:49:10;;;;;;;5.90;1.20;;;6.90;99.90;;;;;;5027072;28;20025;-85
2023/01/10 05:51:36;;;;;;;5.80;1.40;;;6.90;99.90;;;;;;4993404;28;20128;-85
2023/01/10 05:54:01;;;;;;;6.43;1.55;;;6.90;99.90;;;;;;5011571;28;20151;-85
2023/01/10 05:56:28;;;;;;;7.77;1.70;;;6.90;99.90;;;;;;4995040;28;20021;-85
2023/01/10 05:58:54;;;;;;;6.85;1.20;;;6.90;99.90;;;;;;4984029;28;21119;-86
2023/01/10 06:01:20;;;;;;;8.02;1.60;;;6.90;99.90;;;;;;4989942;28;20048;-86
2023/01/10 06:03:46;;;;;;;9.30;1.83;;;6.90;99.90;;;;;;4997439;28;20033;-85
2023/01/10 06:06:12;;;;;;;8.23;1.53;;;6.90;99.90;;;;;;4994749;28;20401;-85
2023/01/10 06:08:37;;;;;;;7.70;1.40;;;6.90;99.90;;;;;;5003377;28;20481;-85
2023/01/10 06:11:04;;;;;;;6.37;1.30;;;6.90;99.90;;;;;;5015402;28;20025;-86
2023/01/10 06:13:29;;;;;;;6.22;1.35;;;6.90;99.90;;;;;;5016894;28;20086;-85
2023/01/10 06:15:55;;;;;;;4.18;1.02;;;6.90;99.90;;;;;;4988118;28;20025;-86
2023/01/10 06:18:21;;;;;;;5.70;1.37;;;6.90;99.90;;;;;;5011142;28;20339;-86
2023/01/10 06:20:47;;;;;;;5.68;1.30;;;6.90;99.90;;;;;;5002867;28;20552;-86
2023/01/10 06:23:13;;;;;;;9.05;1.50;;;6.80;99.90;;;;;;4986984;28;20096;-86
2023/01/10 06:25:41;;;;;;;8.80;1.70;;;6.80;99.90;;;;;;5014847;28;20090;-85
2023/01/10 06:28:08;;;;;;;8.75;2.42;;;6.80;99.90;;;;;;5018719;28;20041;-86
2023/01/10 06:30:34;;;;;;;5.30;1.75;;;6.80;99.90;;;;;;5000632;28;20033;-86
2023/01/10 06:33:01;;;;;;;5.30;1.63;;;6.80;99.90;;;;;;4982779;28;20247;-86
2023/01/10 06:35:28;;;;;;;6.97;1.92;;;6.70;99.90;;;;;;5014614;28;20485;-86
2023/01/10 06:37:53;;;;;;;9.73;2.13;;;6.80;99.90;;;;;;4982490;28;20344;-86
2023/01/10 06:40:19;;;;;;;6.23;1.90;;;6.70;99.90;;;;;;5000764;28;20142;-86
2023/01/10 06:42:44;;;;;;;7.13;2.00;;;6.70;99.90;;;;;;4998920;28;20116;-86
2023/01/10 06:45:10;;;;;;;7.60;1.40;;;6.70;99.90;;;;;;5026706;28;20032;-86
2023/01/10 06:47:36;;;;;;;6.13;1.70;;;6.70;99.90;;;;;;4982839;28;20033;-86
2023/01/10 06:50:02;;;;;;;8.33;1.50;;;6.70;99.90;;;;;;5001719;28;20133;-86
2023/01/10 06:52:28;;;;;;;6.97;1.15;;;6.60;99.90;;;;;;4995410;28;20078;-86
2023/01/10 06:54:54;;;;;;;5.75;1.15;;;6.60;99.90;;;;;;4989645;28;20032;-86
2023/01/10 06:57:20;;;;;;;6.38;1.40;;;6.60;99.90;;;;;;4987655;28;20495;-86
2023/01/10 06:59:46;;;;;;;6.57;1.37;;;6.60;99.90;;;;;;4998896;28;20059;-86
2023/01/10 07:02:12;;;;;;;5.93;1.25;;;6.60;99.90;;;;;;4979435;28;20476;-85
2023/01/10 07:04:38;;;;;;;4.72;1.30;;;6.60;99.90;;;;;;5011303;28;20577;-86
2023/01/10 07:07:03;;;;;;;5.33;1.30;;;6.50;99.90;;;;;;4988957;28;20172;-86
2023/01/10 07:09:29;;;;;;;4.53;1.50;;;6.50;99.90;;;;;;4993191;28;20035;-86
2023/01/10 07:11:55;;;;;;;4.60;1.53;;;6.50;99.90;;;;;;4992568;28;20217;-86
2023/01/10 07:14:21;;;;;;;7.82;1.48;;;6.40;99.90;;;;;;5011758;28;20074;-86
2023/01/10 07:16:47;;;;;;;4.53;1.30;;;6.40;99.90;;;;;;5010937;28;20028;-86
2023/01/10 07:19:13;;;;;;;4.10;1.53;;;6.40;99.90;;;;;;4983068;28;20021;-86
2023/01/10 07:21:39;;;;;;;6.13;1.70;;;6.30;99.90;;;;;;5008285;28;20365;-85
2023/01/10 07:24:05;;;;;;;5.53;1.83;;;6.30;99.90;;;;;;4990510;28;20229;-85
2023/01/10 07:26:30;;;;;;;5.85;1.58;;;6.30;99.90;;;;;;5013313;28;20150;-86
2023/01/10 07:28:56;;;;;;;4.47;1.10;;;6.30;99.90;;;;;;4993030;28;20233;-85
2023/01/10 07:31:23;;;;;;;5.40;1.13;;;6.30;99.90;;;;;;5006158;28;20060;-85
2023/01/10 07:33:52;;;;;;;4.10;1.00;;;6.30;99.90;;;;;;4980336;28;20021;-85
2023/01/10 07:36:18;;;;;;;5.90;1.35;;;6.30;99.90;;;;;;4996846;28;20060;-85
2023/01/10 07:38:44;;;;;;;4.38;1.08;;;6.20;99.90;;;;;;4991399;28;20048;-85
2023/01/10 07:41:10;;;;;;;2.90;1.00;;;6.20;99.90;;;;;;4985545;28;20489;-86
2023/01/10 07:43:36;;;;;;;5.30;1.10;;;6.30;99.90;;;;;;5010092;28;20543;-84
2023/01/10 07:46:07;;;;;;;5.93;1.10;;;6.30;99.90;;;;;;5011601;28;20082;-85
2023/01/10 07:48:32;;;;;;;6.73;1.37;;;6.30;99.90;;;;;;4994614;28;20376;-86
2023/01/10 07:51:00;;;;;;;8.88;1.20;;;6.30;99.90;;;;;;4998622;28;20119;-86
2023/01/10 07:53:27;;;;;;;4.00;1.13;;;6.30;99.90;;;;;;4999195;28;20013;-85
2023/01/10 07:55:53;;;;;;;6.97;1.23;;;6.40;99.90;;;;;;4989978;28;20024;-85
2023/01/10 07:58:19;;;;;;;4.82;1.15;;;6.30;99.90;;;;;;4998352;28;20013;-85
2023/01/10 08:00:45;;;;;;;4.23;0.90;;;6.40;99.90;;;;;;4997300;28;20021;-85
2023/01/10 08:03:12;;;;;;;6.50;1.50;;;6.40;99.90;;;;;;4995779;28;20108;-85
2023/01/10 08:05:38;;;;;;;4.90;1.35;;;6.40;99.90;;;;;;4977255;28;20045;-86
2023/01/10 08:08:06;;;;;;;4.30;1.15;;;6.50;99.90;;;;;;4965323;28;20166;-84
2023/01/10 08:10:33;;;;;;;5.30;1.17;;;6.50;99.90;;;;;;4996204;28;20036;-86
2023/01/10 08:12:59;;;;;;;6.90;1.65;;;6.60;99.90;;;;;;4972799;28;20143;-86
2023/01/10 08:15:25;;;;;;;5.82;1.45;;;6.60;99.90;;;;;;4974637;28;20017;-85
2023/01/10 08:17:51;;;;;;;6.00;1.48;;;6.70;99.90;;;;;;4988659;28;20218;-86
2023/01/10 08:20:17;;;;;;;4.97;1.20;;;6.70;99.90;;;;;;4976202;28;20105;-86
2023/01/10 08:22:42;;;;;;;5.47;1.08;;;6.80;99.90;;;;;;4967052;28;20141;-86
2023/01/10 08:25:09;;;;;;;4.80;1.00;;;6.90;99.90;;;;;;4980841;28;20354;-85
2023/01/10 08:27:36;;;;;;;4.22;1.27;;;6.90;99.90;;;;;;4994725;28;20044;-86
2023/01/10 08:30:02;;;;;;;5.18;1.17;;;7.00;99.90;;;;;;4976052;28;20227;-86
2023/01/10 08:32:28;;;;;;;5.47;1.27;;;7.00;99.90;;;;;;4993901;28;20025;-86
2023/01/10 08:34:54;;;;;;;4.67;1.70;;;7.10;99.90;;;;;;4977250;28;20806;-85
2023/01/10 08:37:20;;;;;;;2.17;0.90;;;7.10;99.90;;;;;;4970521;28;20024;-87
2023/01/10 08:39:45;;;;;;;3.97;1.30;;;7.20;99.90;;;;;;5005531;28;20026;-86
2023/01/10 08:42:11;;;;;;;5.30;1.43;;;7.20;99.90;;;;;;4978394;28;20504;-86
2023/01/10 08:44:37;;;;;;;5.07;1.05;;;7.30;99.90;;;;;;4989081;28;20033;-86
2023/01/10 08:47:02;;;;;;;4.80;1.30;;;7.30;99.90;;;;;;4967338;28;20119;-86
2023/01/10 08:49:28;;;;;;;5.90;1.10;;;7.30;99.90;;;;;;4985022;28;20494;-85
2023/01/10 08:51:54;;;;;;;5.10;1.30;;;7.40;99.90;;;;;;4985915;28;20029;-86
2023/01/10 08:54:20;;;;;;;9.00;1.67;;;7.40;99.90;;;;;;4976031;28;20224;-84
2023/01/10 08:56:45;;;;;;;3.78;1.27;;;7.40;99.90;;;;;;4992830;28;20061;-86
2023/01/10 08:59:11;;;;;;;4.82;1.40;;;7.40;99.90;;;;;;4990947;28;20284;-85
2023/01/10 09:01:37;;;;;;;3.80;1.08;;;7.40;99.90;;;;;;4967978;28;20151;-85
2023/01/10 09:04:04;;;;;;;9.00;2.07;;;7.40;99.90;;;;;;4992951;28;20166;-85
2023/01/10 09:06:30;;;;;;;4.30;1.20;;;7.50;99.90;;;;;;4989095;28;20326;-85
2023/01/10 09:08:55;;;;;;;5.03;1.20;;;7.50;99.90;;;;;;4976599;28;20238;-85
2023/01/10 09:11:21;;;;;;;7.27;1.67;;;7.50;99.90;;;;;;4994812;28;20111;-85
2023/01/10 09:13:50;;;;;;;4.55;1.30;;;7.50;99.90;;;;;;4997967;28;20056;-84
2023/01/10 09:16:16;;;;;;;4.23;1.10;;;7.60;99.90;;;;;;4962733;28;21737;-85
2023/01/10 09:18:42;;;;;;;5.28;1.30;;;7.60;99.90;;;;;;4993066;28;20039;-85
2023/01/10 09:21:08;;;;;;;9.85;1.55;;;7.70;99.90;;;;;;4992256;28;20034;-85
2023/01/10 09:23:34;;;;;;;6.77;1.33;;;7.70;99.90;;;;;;4977667;28;20378;-85
2023/01/10 09:26:00;;;;;;;5.65;1.50;;;7.80;99.90;;;;;;4984338;28;20405;-86
2023/01/10 09:28:26;;;;;;;5.47;1.20;;;7.80;99.90;;;;;;4996536;28;20611;-86
2023/01/10 09:30:52;;;;;;;6.55;1.50;;;7.90;99.90;;;;;;5000481;28;20579;-85
2023/01/10 09:33:18;;;;;;;6.32;1.40;;;7.90;99.90;;;;;;4994349;28;20242;-86
2023/01/10 09:35:44;;;;;;;6.97;1.35;;;7.90;99.90;;;;;;4980924;28;20739;-85
2023/01/10 09:38:14;;;;;;;4.03;1.03;;;7.90;99.90;;;;;;4993197;28;20026;-86
2023/01/10 09:41:17;;;;;;;5.38;1.52;;;8.00;99.90;;;;;;4959817;28;20526;-86
2023/01/10 09:44:02;;;;;;;5.88;1.20;;;8.00;99.90;;;;;;4999120;28;20080;-85
2023/01/10 09:46:46;;;;;;;5.15;1.10;;;8.10;99.90;;;;;;5016197;28;20246;-86
2023/01/10 09:49:15;;;;;;;4.63;1.10;;;8.10;99.90;;;;;;4976686;28;20127;-85
2023/01/10 09:51:43;;;;;;;2.80;0.97;;;8.10;99.90;;;;;;5012939;28;20038;-85
2023/01/10 09:54:36;;;;;;;3.80;1.30;;;8.20;99.90;;;;;;5010770;28;20030;-85
2023/01/10 09:57:02;;;;;;;5.05;1.48;;;8.20;99.90;;;;;;4968602;28;20057;-86
2023/01/10 09:59:36;;;;;;;6.13;1.42;;;8.30;99.90;;;;;;4998878;28;20220;-86
2023/01/10 10:02:35;;;;;;;4.40;1.48;;;8.30;99.90;;;;;;4985439;28;20857;-85
2023/01/10 10:05:07;;;;;;;4.43;1.67;;;8.30;99.90;;;;;;4981941;28;20048;-84
2023/01/10 10:07:33;;;;;;;5.40;1.30;;;8.40;99.90;;;;;;5032229;28;20385;-85
2023/01/10 10:09:58;;;;;;;7.47;1.48;;;8.40;99.90;;;;;;4995599;28;20516;-86
2023/01/10 10:12:51;;;;;;;6.30;1.83;;;8.50;99.90;;;;;;4978385;28;20105;-87
2023/01/10 10:15:34;;;;;;;8.90;1.70;;;8.50;99.90;;;;;;5029736;28;20060;-85
2023/01/10 10:18:28;;;;;;;5.18;1.48;;;8.50;99.90;;;;;;4990010;28;20033;-86
2023/01/10 10:21:10;;;;;;;5.07;1.48;;;8.60;99.90;;;;;;4986799;28;20057;-86
2023/01/10 10:24:19;;;;;;;8.15;1.30;;;8.60;99.90;;;;;;5030279;28;20036;-85
2023/01/10 10:27:14;;;;;;;5.80;1.55;;;8.70;99.90;;;;;;4955139;28;20037;-84
2023/01/10 10:30:12;;;;;;;7.50;1.80;;;8.70;99.90;;;;;;5015634;28;20380;-85
2023/01/10 10:32:57;;;;;;;5.95;1.80;;;8.80;99.90;;;;;;5009868;28;20052;-86
2023/01/10 10:35:28;;;;;;;9.20;1.90;;;8.80;99.90;;;;;;5000834;28;20033;-85
2023/01/10 10:37:58;;;;;;;5.55;1.50;;;8.90;99.90;;;;;;5015518;28;20496;-85
2023/01/10 10:40:27;;;;;;;4.30;1.20;;;9.00;99.90;;;;;;4987450;28;21126;-85
2023/01/10 10:42:55;;;;;;;7.23;1.90;;;9.10;99.90;;;;;;4977029;28;20028;-85
2023/01/10 10:45:45;;;;;;;6.40;1.40;;;9.20;99.90;;;;;;5015606;28;20020;-85
2023/01/10 10:48:21;;;;;;;8.25;1.58;;;9.30;99.90;;;;;;4989179;28;20052;-86
2023/01/10 10:51:17;;;;;;;5.15;1.40;;;9.40;99.90;;;;;;4986887;28;20036;-85
2023/01/10 10:53:45;;;;;;;5.90;1.60;;;9.40;99.90;;;;;;5011314;28;20032;-85
2023/01/10 10:56:14;;;;;;;7.30;1.27;;;9.50;99.90;;;;;;4984122;28;20017;-85
2023/01/10 10:58:43;;;;;;;5.03;1.33;;;9.50;99.90;;;;;;5001548;28;20029;-85
2023/01/10 11:01:16;;;;;;;4.68;1.42;;;9.60;99.90;;;;;;5014652;28;20040;-85
2023/01/10 11:03:43;;;;;;;7.07;1.20;;;9.60;99.90;;;;;;5029922;28;20040;-85
2023/01/10 11:06:09;;;;;;;7.95;1.50;;;9.60;99.90;;;;;;4983301;28;20068;-85
2023/01/10 11:08:40;;;;;;;5.87;1.30;;;9.70;99.90;;;;;;4998106;28;20029;-85
2023/01/10 11:11:22;;;;;;;6.32;1.50;;;9.70;99.90;;;;;;4995400;28;20021;-86
2023/01/10 11:13:59;;;;;;;3.95;1.30;;;9.70;99.90;;;;;;4972195;28;20021;-85
2023/01/10 11:16:29;;;;;;;7.88;1.50;;;9.70;99.90;;;;;;4993921;28;20320;-85
2023/01/10 11:19:25;;;;;;;6.43;1.85;;;9.70;99.90;;;;;;4977474;28;20025;-85
2023/01/10 11:21:59;;;;;;;4.93;1.47;;;9.70;99.90;;;;;;4979623;28;20595;-85
2023/01/10 11:24:36;;;;;;;5.28;1.40;;;9.70;99.90;;;;;;4992443;28;20209;-87
2023/01/10 11:27:16;;;;;;;6.70;1.65;;;9.60;99.90;;;;;;5010319;28;20034;-86
2023/01/10 11:29:46;;;;;;;4.95;1.27;;;9.60;99.90;;;;;;4966325;28;20792;-85
2023/01/10 11:32:15;;;;;;;7.32;1.33;;;9.60;99.90;;;;;;5007192;28;20025;-85
2023/01/10 11:34:52;;;;;;;8.73;1.70;;;9.60;99.90;;;;;;4997459;28;20087;-85
2023/01/10 11:37:30;;;;;;;7.25;1.60;;;9.60;99.90;;;;;;4989724;28;20259;-86
2023/01/10 11:40:24;;;;;;;6.82;1.88;;;9.60;99.90;;;;;;4972670;28;20026;-85
2023/01/10 11:42:53;;;;;;;6.78;1.70;;;9.60;99.90;;;;;;4989140;28;20032;-85
2023/01/10 11:45:19;;;;;;;6.22;1.45;;;9.60;99.90;;;;;;4968380;28;20718;-85
2023/01/10 11:47:57;;;;;;;8.40;1.70;;;9.60;99.90;;;;;;4988761;28;20030;-86
2023/01/10 11:50:26;;;;;;;6.65;1.42;;;9.60;99.90;;;;;;4970535;28;20061;-86
2023/01/10 11:52:52;;;;;;;5.07;1.63;;;9.60;99.90;;;;;;4974949;28;20026;-84
2023/01/10 11:55:22;;;;;;;7.27;1.80;;;9.70;99.90;;;;;;5001232;28;20255;-85
2023/01/10 11:58:22;;;;;;;8.50;1.63;;;9.70;99.90;;;;;;4999860;28;20014;-84
2023/01/10 12:00:48;;;;;;;10.43;2.03;;;9.70;99.90;;;;;;4966959;28;20087;-85
2023/01/10 12:03:25;;;;;;;7.45;1.77;;;9.80;99.90;;;;;;4970884;28;20025;-85
2023/01/10 12:05:55;;;;;;;3.03;1.30;;;9.80;99.90;;;;;;5004247;28;20146;-85
2023/01/10 12:08:43;;;;;;;3.90;1.03;;;9.80;99.90;;;;;;4983206;28;20481;-84
2023/01/10 12:11:26;;;;;;;3.20;1.02;;;9.80;99.90;;;;;;4993153;28;20817;-84
2023/01/10 12:13:55;;;;;;;6.82;1.35;;;9.90;99.90;;;;;;5007028;28;20610;-85
2023/01/10 12:16:25;;;;;;;9.00;2.00;;;9.90;99.90;;;;;;4995237;28;20356;-85
2023/01/10 12:18:53;;;;;;;6.50;1.70;;;9.90;99.90;;;;;;4998799;28;20485;-85
2023/01/10 12:21:33;;;;;;;6.33;1.43;;;9.90;99.90;;;;;;5011888;28;20762;-84
2023/01/10 12:24:02;;;;;;;8.27;1.70;;;10.00;99.90;;;;;;4979149;28;20569;-85
2023/01/10 12:26:31;;;;;;;10.35;2.22;;;10.00;99.90;;;;;;5009351;28;20619;-87
2023/01/10 12:29:04;;;;;;;5.22;1.75;;;10.00;99.90;;;;;;5011076;28;20465;-85
2023/01/10 12:31:33;;;;;;;6.65;1.65;;;10.00;99.90;;;;;;5008495;28;20029;-86
2023/01/10 12:34:12;;;;;;;6.63;1.70;;;10.00;99.90;;;;;;5000835;28;20025;-85
2023/01/10 12:36:40;;;;;;;4.80;1.40;;;10.00;99.90;;;;;;4984896;28;20599;-85
2023/01/10 12:39:15;;;;;;;7.72;1.50;;;10.00;99.90;;;;;;5007418;28;20389;-85
2023/01/10 12:44:34;;;;;;;6.95;1.50;;;10.00;99.90;;;;;;5033101;28;20040;-85
2023/01/10 12:47:23;;;;;;;5.53;1.40;;;10.00;99.90;;;;;;5004427;28;20592;-87
2023/01/10 12:50:21;;;;;;;4.05;1.20;;;10.00;99.90;;;;;;4997675;28;20032;-85
2023/01/10 12:52:57;;;;;;;9.35;1.50;;;9.90;99.90;;;;;;5016973;28;20033;-85
2023/01/10 12:55:28;;;;;;;5.15;1.20;;;9.90;99.90;;;;;;4982715;28;20110;-87
2023/01/10 12:57:59;;;;;;;7.88;1.70;;;9.80;99.90;;;;;;5004899;28;20156;-85
2023/01/10 13:00:35;;;;;;;6.87;1.50;;;9.80;99.90;;;;;;4999181;28;20052;-85
2023/01/10 13:03:08;;;;;;;5.30;1.20;;;9.80;99.90;;;;;;4983432;28;20029;-84
2023/01/10 13:05:33;;;;;;;5.25;1.73;;;9.70;99.90;;;;;;5015592;28;20029;-85
2023/01/10 13:08:04;;;;;;;6.85;1.63;;;9.70;99.90;;;;;;5011718;28;20075;-85
2023/01/10 13:10:32;;;;;;;6.33;1.40;;;9.60;99.90;;;;;;5003943;28;20648;-87
2023/01/10 13:13:12;;;;;;;7.97;1.45;;;9.60;99.90;;;;;;5016261;28;20956;-84
2023/01/10 13:15:46;;;;;;;6.85;1.52;;;9.50;99.90;;;;;;5013113;28;20488;-86
2023/01/10 13:18:22;;;;;;;6.32;1.73;;;9.60;99.90;;;;;;5004179;28;20532;-85
2023/01/10 13:20:48;;;;;;;7.75;2.40;;;9.60;99.90;;;;;;4998891;28;20094;-84
2023/01/10 13:23:26;;;;;;;10.23;1.90;;;9.50;99.90;;;;;;5013423;28;20018;-84
2023/01/10 13:26:18;;;;;;;7.05;1.45;;;9.50;99.90;;;;;;5007137;28;20021;-85
2023/01/10 13:28:59;;;;;;;7.70;1.50;;;9.50;99.90;;;;;;5015339;28;20042;-85